sensor_id;sensor_type;location;lat;lon;timestamp;P1;durP1;ratioP1;P2;durP2;ratioP2
56239;SDS011;42154;51.992;5.896;2024-03-08T00:00:43;37.58;;;21.77;;
56239;SDS011;42154;51.992;5.896;2024-03-08T00:03:09;36.83;;;22.23;;
56239;SDS011;42154;51.992;5.896;2024-03-08T00:05:35;34.33;;;20.45;;
56239;SDS011;42154;51.992;5.896;2024-03-08T00:08:04;38.33;;;21.95;;
56239;SDS011;42154;51.992;5.896;2024-03-08T00:10:31;32.83;;;20.92;;
56239;SDS011;42154;51.992;5.896;2024-03-08T00:12:57;34.67;;;21.08;;
56239;SDS011;42154;51.992;5.896;2024-03-08T00:15:23;34.67;;;20.55;;
56239;SDS011;42154;51.992;5.896;2024-03-08T00:17:49;31.33;;;19.55;;
56239;SDS011;42154;51.992;5.896;2024-03-08T00:20:15;36.03;;;21.45;;
56239;SDS011;42154;51.992;5.896;2024-03-08T00:22:43;32.28;;;20.77;;
56239;SDS011;42154;51.992;5.896;2024-03-08T00:25:09;33.03;;;20.67;;
56239;SDS011;42154;51.992;5.896;2024-03-08T00:27:35;35.58;;;22.13;;
56239;SDS011;42154;51.992;5.896;2024-03-08T00:30:01;30.95;;;19.90;;
56239;SDS011;42154;51.992;5.896;2024-03-08T00:32:28;32.55;;;20.92;;
56239;SDS011;42154;51.992;5.896;2024-03-08T00:34:54;33.05;;;20.80;;
56239;SDS011;42154;51.992;5.896;2024-03-08T00:37:20;33.75;;;20.10;;
56239;SDS011;42154;51.992;5.896;2024-03-08T00:39:50;30.73;;;19.08;;
56239;SDS011;42154;51.992;5.896;2024-03-08T00:42:17;36.47;;;19.73;;
56239;SDS011;42154;51.992;5.896;2024-03-08T00:44:43;30.15;;;19.88;;
56239;SDS011;42154;51.992;5.896;2024-03-08T00:47:10;31.73;;;19.77;;
56239;SDS011;42154;51.992;5.896;2024-03-08T00:49:36;31.13;;;20.45;;
56239;SDS011;42154;51.992;5.896;2024-03-08T00:52:06;36.85;;;21.30;;
56239;SDS011;42154;51.992;5.896;2024-03-08T00:54:34;33.75;;;20.67;;
56239;SDS011;42154;51.992;5.896;2024-03-08T00:57:03;36.33;;;22.73;;
56239;SDS011;42154;51.992;5.896;2024-03-08T00:59:29;34.75;;;20.95;;
56239;SDS011;42154;51.992;5.896;2024-03-08T01:01:59;31.10;;;20.77;;
56239;SDS011;42154;51.992;5.896;2024-03-08T01:04:28;34.85;;;21.23;;
56239;SDS011;42154;51.992;5.896;2024-03-08T01:06:57;33.20;;;21.15;;
56239;SDS011;42154;51.992;5.896;2024-03-08T01:09:24;32.28;;;21.02;;
56239;SDS011;42154;51.992;5.896;2024-03-08T01:11:50;32.38;;;20.75;;
56239;SDS011;42154;51.992;5.896;2024-03-08T01:14:16;31.63;;;19.70;;
56239;SDS011;42154;51.992;5.896;2024-03-08T01:16:42;35.22;;;21.95;;
56239;SDS011;42154;51.992;5.896;2024-03-08T01:19:08;31.75;;;19.95;;
56239;SDS011;42154;51.992;5.896;2024-03-08T01:21:34;31.38;;;20.20;;
56239;SDS011;42154;51.992;5.896;2024-03-08T01:23:59;30.00;;;20.17;;
56239;SDS011;42154;51.992;5.896;2024-03-08T01:26:25;31.23;;;20.00;;
56239;SDS011;42154;51.992;5.896;2024-03-08T01:28:51;32.45;;;22.25;;
56239;SDS011;42154;51.992;5.896;2024-03-08T01:31:17;30.52;;;21.02;;
56239;SDS011;42154;51.992;5.896;2024-03-08T01:33:42;33.75;;;22.25;;
56239;SDS011;42154;51.992;5.896;2024-03-08T01:36:08;30.23;;;19.70;;
56239;SDS011;42154;51.992;5.896;2024-03-08T01:38:34;32.58;;;21.67;;
56239;SDS011;42154;51.992;5.896;2024-03-08T01:41:01;33.72;;;22.98;;
56239;SDS011;42154;51.992;5.896;2024-03-08T01:43:28;32.47;;;21.15;;
56239;SDS011;42154;51.992;5.896;2024-03-08T01:45:57;32.17;;;22.48;;
56239;SDS011;42154;51.992;5.896;2024-03-08T01:48:25;27.15;;;19.90;;
56239;SDS011;42154;51.992;5.896;2024-03-08T01:50:51;33.72;;;22.10;;
56239;SDS011;42154;51.992;5.896;2024-03-08T01:53:19;30.40;;;21.10;;
56239;SDS011;42154;51.992;5.896;2024-03-08T01:55:46;29.88;;;20.73;;
56239;SDS011;42154;51.992;5.896;2024-03-08T01:58:13;28.63;;;20.20;;
56239;SDS011;42154;51.992;5.896;2024-03-08T02:00:41;29.27;;;20.45;;
56239;SDS011;42154;51.992;5.896;2024-03-08T02:03:14;32.10;;;21.52;;
56239;SDS011;42154;51.992;5.896;2024-03-08T02:05:41;32.80;;;22.05;;
56239;SDS011;42154;51.992;5.896;2024-03-08T02:08:07;30.00;;;20.80;;
56239;SDS011;42154;51.992;5.896;2024-03-08T02:10:38;32.85;;;21.38;;
56239;SDS011;42154;51.992;5.896;2024-03-08T02:13:04;35.60;;;23.23;;
56239;SDS011;42154;51.992;5.896;2024-03-08T02:18:15;31.98;;;22.33;;
56239;SDS011;42154;51.992;5.896;2024-03-08T02:20:42;32.28;;;21.77;;
56239;SDS011;42154;51.992;5.896;2024-03-08T02:23:08;31.50;;;21.85;;
56239;SDS011;42154;51.992;5.896;2024-03-08T02:25:34;30.98;;;21.52;;
56239;SDS011;42154;51.992;5.896;2024-03-08T02:28:01;32.13;;;20.25;;
56239;SDS011;42154;51.992;5.896;2024-03-08T02:30:26;29.90;;;20.45;;
56239;SDS011;42154;51.992;5.896;2024-03-08T02:32:55;33.90;;;21.60;;
56239;SDS011;42154;51.992;5.896;2024-03-08T02:35:21;34.85;;;24.52;;
56239;SDS011;42154;51.992;5.896;2024-03-08T02:37:47;33.97;;;21.52;;
56239;SDS011;42154;51.992;5.896;2024-03-08T02:40:13;34.70;;;22.42;;
56239;SDS011;42154;51.992;5.896;2024-03-08T02:42:39;35.38;;;24.60;;
56239;SDS011;42154;51.992;5.896;2024-03-08T02:45:05;36.45;;;23.48;;
56239;SDS011;42154;51.992;5.896;2024-03-08T02:47:31;33.00;;;21.75;;
56239;SDS011;42154;51.992;5.896;2024-03-08T02:49:57;30.05;;;20.50;;
56239;SDS011;42154;51.992;5.896;2024-03-08T02:52:23;33.45;;;22.08;;
56239;SDS011;42154;51.992;5.896;2024-03-08T02:54:49;32.00;;;23.08;;
56239;SDS011;42154;51.992;5.896;2024-03-08T02:57:15;32.80;;;23.25;;
56239;SDS011;42154;51.992;5.896;2024-03-08T02:59:41;30.88;;;22.23;;
56239;SDS011;42154;51.992;5.896;2024-03-08T03:02:07;29.05;;;20.48;;
56239;SDS011;42154;51.992;5.896;2024-03-08T03:04:35;30.65;;;22.20;;
56239;SDS011;42154;51.992;5.896;2024-03-08T03:07:01;31.23;;;20.98;;
56239;SDS011;42154;51.992;5.896;2024-03-08T03:09:27;37.15;;;23.08;;
56239;SDS011;42154;51.992;5.896;2024-03-08T03:11:53;33.17;;;22.70;;
56239;SDS011;42154;51.992;5.896;2024-03-08T03:14:20;30.92;;;21.52;;
56239;SDS011;42154;51.992;5.896;2024-03-08T03:16:47;32.25;;;22.63;;
56239;SDS011;42154;51.992;5.896;2024-03-08T03:19:13;31.20;;;20.95;;
56239;SDS011;42154;51.992;5.896;2024-03-08T03:21:40;34.53;;;24.08;;
56239;SDS011;42154;51.992;5.896;2024-03-08T03:24:08;34.78;;;23.15;;
56239;SDS011;42154;51.992;5.896;2024-03-08T03:26:37;32.85;;;22.65;;
56239;SDS011;42154;51.992;5.896;2024-03-08T03:29:07;35.38;;;23.35;;
56239;SDS011;42154;51.992;5.896;2024-03-08T03:31:37;32.88;;;22.42;;
56239;SDS011;42154;51.992;5.896;2024-03-08T03:34:03;33.67;;;23.63;;
56239;SDS011;42154;51.992;5.896;2024-03-08T03:36:29;33.30;;;22.10;;
56239;SDS011;42154;51.992;5.896;2024-03-08T03:38:56;34.28;;;22.33;;
56239;SDS011;42154;51.992;5.896;2024-03-08T03:41:31;34.40;;;22.00;;
56239;SDS011;42154;51.992;5.896;2024-03-08T03:43:57;34.08;;;22.33;;
56239;SDS011;42154;51.992;5.896;2024-03-08T03:46:24;35.00;;;23.98;;
56239;SDS011;42154;51.992;5.896;2024-03-08T03:48:52;33.45;;;22.38;;
56239;SDS011;42154;51.992;5.896;2024-03-08T03:51:19;32.55;;;22.13;;
56239;SDS011;42154;51.992;5.896;2024-03-08T03:53:46;36.35;;;23.77;;
56239;SDS011;42154;51.992;5.896;2024-03-08T03:56:12;34.78;;;24.95;;
56239;SDS011;42154;51.992;5.896;2024-03-08T03:58:38;37.13;;;26.08;;
56239;SDS011;42154;51.992;5.896;2024-03-08T04:01:05;35.55;;;23.40;;
56239;SDS011;42154;51.992;5.896;2024-03-08T04:03:31;35.30;;;24.73;;
56239;SDS011;42154;51.992;5.896;2024-03-08T04:05:56;39.78;;;25.15;;
56239;SDS011;42154;51.992;5.896;2024-03-08T04:08:22;39.70;;;26.27;;
56239;SDS011;42154;51.992;5.896;2024-03-08T04:10:51;36.85;;;24.30;;
56239;SDS011;42154;51.992;5.896;2024-03-08T04:13:17;34.15;;;23.02;;
56239;SDS011;42154;51.992;5.896;2024-03-08T04:15:42;36.05;;;24.33;;
56239;SDS011;42154;51.992;5.896;2024-03-08T04:18:09;36.40;;;23.67;;
56239;SDS011;42154;51.992;5.896;2024-03-08T04:20:35;35.22;;;23.98;;
56239;SDS011;42154;51.992;5.896;2024-03-08T04:23:01;35.08;;;24.05;;
56239;SDS011;42154;51.992;5.896;2024-03-08T04:25:27;38.47;;;27.00;;
56239;SDS011;42154;51.992;5.896;2024-03-08T04:27:53;36.47;;;24.85;;
56239;SDS011;42154;51.992;5.896;2024-03-08T04:30:19;37.65;;;24.55;;
56239;SDS011;42154;51.992;5.896;2024-03-08T04:32:46;42.20;;;27.05;;
56239;SDS011;42154;51.992;5.896;2024-03-08T04:35:12;34.80;;;24.75;;
56239;SDS011;42154;51.992;5.896;2024-03-08T04:37:39;34.08;;;24.15;;
56239;SDS011;42154;51.992;5.896;2024-03-08T04:40:05;38.70;;;23.58;;
56239;SDS011;42154;51.992;5.896;2024-03-08T04:42:32;33.70;;;23.52;;
56239;SDS011;42154;51.992;5.896;2024-03-08T04:44:58;34.78;;;23.08;;
56239;SDS011;42154;51.992;5.896;2024-03-08T04:47:24;35.10;;;24.13;;
56239;SDS011;42154;51.992;5.896;2024-03-08T04:49:50;36.40;;;23.73;;
56239;SDS011;42154;51.992;5.896;2024-03-08T04:52:16;35.75;;;24.30;;
56239;SDS011;42154;51.992;5.896;2024-03-08T04:54:42;37.83;;;24.45;;
56239;SDS011;42154;51.992;5.896;2024-03-08T04:57:09;38.20;;;25.23;;
56239;SDS011;42154;51.992;5.896;2024-03-08T04:59:36;36.53;;;24.58;;
56239;SDS011;42154;51.992;5.896;2024-03-08T05:02:02;38.60;;;24.35;;
56239;SDS011;42154;51.992;5.896;2024-03-08T05:04:28;36.58;;;24.10;;
56239;SDS011;42154;51.992;5.896;2024-03-08T05:06:54;38.80;;;25.38;;
56239;SDS011;42154;51.992;5.896;2024-03-08T05:09:20;35.75;;;24.15;;
56239;SDS011;42154;51.992;5.896;2024-03-08T05:11:46;35.10;;;23.65;;
56239;SDS011;42154;51.992;5.896;2024-03-08T05:14:13;36.67;;;24.55;;
56239;SDS011;42154;51.992;5.896;2024-03-08T05:16:45;37.67;;;23.40;;
56239;SDS011;42154;51.992;5.896;2024-03-08T05:19:14;39.65;;;26.02;;
56239;SDS011;42154;51.992;5.896;2024-03-08T05:21:45;41.05;;;26.38;;
56239;SDS011;42154;51.992;5.896;2024-03-08T05:24:12;39.67;;;26.02;;
56239;SDS011;42154;51.992;5.896;2024-03-08T05:26:38;36.45;;;24.83;;
56239;SDS011;42154;51.992;5.896;2024-03-08T05:29:04;42.30;;;25.60;;
56239;SDS011;42154;51.992;5.896;2024-03-08T05:31:36;40.72;;;26.58;;
56239;SDS011;42154;51.992;5.896;2024-03-08T05:34:10;37.90;;;25.08;;
56239;SDS011;42154;51.992;5.896;2024-03-08T05:36:40;34.42;;;22.30;;
56239;SDS011;42154;51.992;5.896;2024-03-08T05:39:08;35.60;;;23.13;;
56239;SDS011;42154;51.992;5.896;2024-03-08T05:41:37;42.28;;;25.50;;
56239;SDS011;42154;51.992;5.896;2024-03-08T05:44:04;39.10;;;24.23;;
56239;SDS011;42154;51.992;5.896;2024-03-08T05:46:30;36.00;;;24.40;;
56239;SDS011;42154;51.992;5.896;2024-03-08T05:48:56;37.15;;;24.00;;
56239;SDS011;42154;51.992;5.896;2024-03-08T05:51:24;32.67;;;22.55;;
56239;SDS011;42154;51.992;5.896;2024-03-08T05:53:52;37.45;;;24.60;;
56239;SDS011;42154;51.992;5.896;2024-03-08T05:56:19;37.50;;;24.85;;
56239;SDS011;42154;51.992;5.896;2024-03-08T05:58:45;37.45;;;24.38;;
56239;SDS011;42154;51.992;5.896;2024-03-08T06:01:11;38.35;;;24.38;;
56239;SDS011;42154;51.992;5.896;2024-03-08T06:03:38;36.22;;;23.90;;
56239;SDS011;42154;51.992;5.896;2024-03-08T06:06:13;38.58;;;23.85;;
56239;SDS011;42154;51.992;5.896;2024-03-08T06:08:39;37.15;;;24.27;;
56239;SDS011;42154;51.992;5.896;2024-03-08T06:11:08;40.38;;;26.23;;
56239;SDS011;42154;51.992;5.896;2024-03-08T06:13:34;38.45;;;24.75;;
56239;SDS011;42154;51.992;5.896;2024-03-08T06:16:01;39.00;;;25.73;;
56239;SDS011;42154;51.992;5.896;2024-03-08T06:18:33;36.15;;;25.23;;
56239;SDS011;42154;51.992;5.896;2024-03-08T06:21:07;39.47;;;24.83;;
56239;SDS011;42154;51.992;5.896;2024-03-08T06:23:37;41.20;;;27.13;;
56239;SDS011;42154;51.992;5.896;2024-03-08T06:26:06;39.92;;;26.70;;
56239;SDS011;42154;51.992;5.896;2024-03-08T06:28:33;42.15;;;25.98;;
56239;SDS011;42154;51.992;5.896;2024-03-08T06:31:00;44.28;;;26.95;;
56239;SDS011;42154;51.992;5.896;2024-03-08T06:33:26;39.80;;;26.30;;
56239;SDS011;42154;51.992;5.896;2024-03-08T06:35:55;42.75;;;26.40;;
56239;SDS011;42154;51.992;5.896;2024-03-08T06:38:22;39.92;;;28.00;;
56239;SDS011;42154;51.992;5.896;2024-03-08T06:40:49;39.95;;;27.20;;
56239;SDS011;42154;51.992;5.896;2024-03-08T06:43:16;43.53;;;28.10;;
56239;SDS011;42154;51.992;5.896;2024-03-08T06:45:44;43.58;;;28.42;;
56239;SDS011;42154;51.992;5.896;2024-03-08T06:48:19;40.53;;;27.45;;
56239;SDS011;42154;51.992;5.896;2024-03-08T06:50:45;39.47;;;25.10;;
56239;SDS011;42154;51.992;5.896;2024-03-08T06:53:12;39.70;;;26.23;;
56239;SDS011;42154;51.992;5.896;2024-03-08T06:55:38;40.60;;;26.05;;
56239;SDS011;42154;51.992;5.896;2024-03-08T06:58:05;42.30;;;28.85;;
56239;SDS011;42154;51.992;5.896;2024-03-08T07:00:32;41.47;;;26.15;;
56239;SDS011;42154;51.992;5.896;2024-03-08T07:02:58;46.00;;;28.98;;
56239;SDS011;42154;51.992;5.896;2024-03-08T07:05:29;41.00;;;25.17;;
56239;SDS011;42154;51.992;5.896;2024-03-08T07:07:55;42.90;;;27.15;;
56239;SDS011;42154;51.992;5.896;2024-03-08T07:10:24;38.72;;;24.60;;
56239;SDS011;42154;51.992;5.896;2024-03-08T07:12:50;39.05;;;27.70;;
56239;SDS011;42154;51.992;5.896;2024-03-08T07:15:18;39.42;;;26.67;;
56239;SDS011;42154;51.992;5.896;2024-03-08T07:17:45;42.53;;;27.65;;
56239;SDS011;42154;51.992;5.896;2024-03-08T07:20:12;41.85;;;27.85;;
56239;SDS011;42154;51.992;5.896;2024-03-08T07:22:39;41.65;;;27.40;;
56239;SDS011;42154;51.992;5.896;2024-03-08T07:25:05;43.15;;;28.17;;
56239;SDS011;42154;51.992;5.896;2024-03-08T07:27:52;44.42;;;27.05;;
56239;SDS011;42154;51.992;5.896;2024-03-08T07:30:22;45.40;;;28.05;;
56239;SDS011;42154;51.992;5.896;2024-03-08T07:33:08;45.05;;;28.08;;
56239;SDS011;42154;51.992;5.896;2024-03-08T07:35:39;39.08;;;25.75;;
56239;SDS011;42154;51.992;5.896;2024-03-08T07:38:09;43.28;;;27.92;;
56239;SDS011;42154;51.992;5.896;2024-03-08T07:40:35;44.55;;;28.13;;
56239;SDS011;42154;51.992;5.896;2024-03-08T07:43:04;42.42;;;27.92;;
56239;SDS011;42154;51.992;5.896;2024-03-08T07:45:30;41.63;;;28.25;;
56239;SDS011;42154;51.992;5.896;2024-03-08T07:47:55;44.88;;;28.13;;
56239;SDS011;42154;51.992;5.896;2024-03-08T07:50:22;40.25;;;27.05;;
56239;SDS011;42154;51.992;5.896;2024-03-08T07:52:48;41.80;;;26.95;;
56239;SDS011;42154;51.992;5.896;2024-03-08T07:55:14;40.85;;;26.80;;
56239;SDS011;42154;51.992;5.896;2024-03-08T07:57:40;43.70;;;28.45;;
56239;SDS011;42154;51.992;5.896;2024-03-08T08:00:08;40.05;;;26.25;;
56239;SDS011;42154;51.992;5.896;2024-03-08T08:02:36;39.75;;;26.58;;
56239;SDS011;42154;51.992;5.896;2024-03-08T08:05:02;41.25;;;27.90;;
56239;SDS011;42154;51.992;5.896;2024-03-08T08:07:28;38.53;;;25.75;;
56239;SDS011;42154;51.992;5.896;2024-03-08T08:09:54;42.17;;;27.77;;
56239;SDS011;42154;51.992;5.896;2024-03-08T08:12:20;47.08;;;28.05;;
56239;SDS011;42154;51.992;5.896;2024-03-08T08:14:46;48.00;;;29.52;;
56239;SDS011;42154;51.992;5.896;2024-03-08T08:17:12;43.20;;;28.27;;
56239;SDS011;42154;51.992;5.896;2024-03-08T08:19:37;38.80;;;27.52;;
56239;SDS011;42154;51.992;5.896;2024-03-08T08:22:05;42.85;;;27.25;;
56239;SDS011;42154;51.992;5.896;2024-03-08T08:24:34;40.97;;;27.48;;
56239;SDS011;42154;51.992;5.896;2024-03-08T08:27:02;46.80;;;28.67;;
56239;SDS011;42154;51.992;5.896;2024-03-08T08:29:28;40.42;;;26.27;;
56239;SDS011;42154;51.992;5.896;2024-03-08T08:31:57;42.05;;;26.98;;
56239;SDS011;42154;51.992;5.896;2024-03-08T08:34:24;41.13;;;28.02;;
56239;SDS011;42154;51.992;5.896;2024-03-08T08:36:51;41.08;;;26.67;;
56239;SDS011;42154;51.992;5.896;2024-03-08T08:39:18;39.10;;;26.40;;
56239;SDS011;42154;51.992;5.896;2024-03-08T08:41:44;39.88;;;26.67;;
56239;SDS011;42154;51.992;5.896;2024-03-08T08:44:10;44.40;;;28.80;;
56239;SDS011;42154;51.992;5.896;2024-03-08T08:46:37;46.05;;;29.15;;
56239;SDS011;42154;51.992;5.896;2024-03-08T08:49:04;45.92;;;29.98;;
56239;SDS011;42154;51.992;5.896;2024-03-08T08:51:31;42.53;;;27.25;;
56239;SDS011;42154;51.992;5.896;2024-03-08T08:53:59;42.35;;;28.33;;
56239;SDS011;42154;51.992;5.896;2024-03-08T08:56:25;42.20;;;28.65;;
56239;SDS011;42154;51.992;5.896;2024-03-08T08:58:51;46.15;;;28.73;;
56239;SDS011;42154;51.992;5.896;2024-03-08T09:01:18;39.63;;;26.85;;
56239;SDS011;42154;51.992;5.896;2024-03-08T09:03:45;44.30;;;27.67;;
56239;SDS011;42154;51.992;5.896;2024-03-08T09:06:15;42.27;;;28.30;;
56239;SDS011;42154;51.992;5.896;2024-03-08T09:08:44;39.70;;;26.48;;
56239;SDS011;42154;51.992;5.896;2024-03-08T09:11:11;39.17;;;27.05;;
56239;SDS011;42154;51.992;5.896;2024-03-08T09:13:37;38.45;;;25.90;;
56239;SDS011;42154;51.992;5.896;2024-03-08T09:16:03;38.47;;;25.60;;
56239;SDS011;42154;51.992;5.896;2024-03-08T09:18:30;41.88;;;28.80;;
56239;SDS011;42154;51.992;5.896;2024-03-08T09:20:57;41.53;;;27.38;;
56239;SDS011;42154;51.992;5.896;2024-03-08T09:23:24;38.30;;;25.70;;
56239;SDS011;42154;51.992;5.896;2024-03-08T09:25:55;30.95;;;21.13;;
56239;SDS011;42154;51.992;5.896;2024-03-08T09:28:22;42.95;;;28.38;;
56239;SDS011;42154;51.992;5.896;2024-03-08T09:30:49;38.47;;;24.48;;
56239;SDS011;42154;51.992;5.896;2024-03-08T09:33:15;37.75;;;25.15;;
56239;SDS011;42154;51.992;5.896;2024-03-08T09:35:44;40.58;;;26.20;;
56239;SDS011;42154;51.992;5.896;2024-03-08T09:38:12;37.75;;;24.98;;
56239;SDS011;42154;51.992;5.896;2024-03-08T09:40:38;38.25;;;26.15;;
56239;SDS011;42154;51.992;5.896;2024-03-08T09:43:06;35.92;;;24.52;;
56239;SDS011;42154;51.992;5.896;2024-03-08T09:45:35;40.70;;;26.23;;
56239;SDS011;42154;51.992;5.896;2024-03-08T09:48:08;38.42;;;25.30;;
56239;SDS011;42154;51.992;5.896;2024-03-08T09:50:40;35.70;;;24.15;;
56239;SDS011;42154;51.992;5.896;2024-03-08T09:53:06;38.42;;;26.10;;
56239;SDS011;42154;51.992;5.896;2024-03-08T09:55:38;37.05;;;24.95;;
56239;SDS011;42154;51.992;5.896;2024-03-08T09:58:13;36.80;;;24.60;;
56239;SDS011;42154;51.992;5.896;2024-03-08T10:00:52;36.13;;;24.55;;
56239;SDS011;42154;51.992;5.896;2024-03-08T10:03:21;34.47;;;23.33;;
56239;SDS011;42154;51.992;5.896;2024-03-08T10:05:47;39.00;;;24.95;;
56239;SDS011;42154;51.992;5.896;2024-03-08T10:08:13;38.95;;;25.95;;
56239;SDS011;42154;51.992;5.896;2024-03-08T10:10:39;38.38;;;24.77;;
56239;SDS011;42154;51.992;5.896;2024-03-08T10:13:09;36.70;;;24.10;;
56239;SDS011;42154;51.992;5.896;2024-03-08T10:15:36;33.88;;;22.98;;
56239;SDS011;42154;51.992;5.896;2024-03-08T10:18:03;31.77;;;22.55;;
56239;SDS011;42154;51.992;5.896;2024-03-08T10:20:32;34.75;;;23.73;;
56239;SDS011;42154;51.992;5.896;2024-03-08T10:23:02;37.25;;;25.52;;
56239;SDS011;42154;51.992;5.896;2024-03-08T10:25:30;31.55;;;22.65;;
56239;SDS011;42154;51.992;5.896;2024-03-08T10:27:56;30.45;;;21.70;;
56239;SDS011;42154;51.992;5.896;2024-03-08T10:30:22;35.25;;;24.15;;
56239;SDS011;42154;51.992;5.896;2024-03-08T10:32:49;34.20;;;22.33;;
56239;SDS011;42154;51.992;5.896;2024-03-08T10:35:17;33.72;;;24.73;;
56239;SDS011;42154;51.992;5.896;2024-03-08T10:37:50;34.58;;;24.23;;
56239;SDS011;42154;51.992;5.896;2024-03-08T10:40:34;36.33;;;23.58;;
56239;SDS011;42154;51.992;5.896;2024-03-08T10:43:03;34.53;;;23.05;;
56239;SDS011;42154;51.992;5.896;2024-03-08T10:45:30;33.60;;;22.35;;
56239;SDS011;42154;51.992;5.896;2024-03-08T10:50:53;31.83;;;21.58;;
56239;SDS011;42154;51.992;5.896;2024-03-08T10:53:19;30.10;;;22.30;;
56239;SDS011;42154;51.992;5.896;2024-03-08T10:55:48;29.98;;;20.70;;
56239;SDS011;42154;51.992;5.896;2024-03-08T10:58:19;32.95;;;21.67;;
56239;SDS011;42154;51.992;5.896;2024-03-08T11:00:47;31.20;;;21.60;;
56239;SDS011;42154;51.992;5.896;2024-03-08T11:08:43;30.65;;;21.58;;
56239;SDS011;42154;51.992;5.896;2024-03-08T11:11:32;30.63;;;20.63;;
56239;SDS011;42154;51.992;5.896;2024-03-08T11:14:00;30.00;;;20.67;;
56239;SDS011;42154;51.992;5.896;2024-03-08T11:21:36;31.15;;;21.02;;
56239;SDS011;42154;51.992;5.896;2024-03-08T11:24:12;29.48;;;20.67;;
56239;SDS011;42154;51.992;5.896;2024-03-08T11:26:39;29.77;;;19.95;;
56239;SDS011;42154;51.992;5.896;2024-03-08T11:34:40;31.50;;;19.67;;
56239;SDS011;42154;51.992;5.896;2024-03-08T11:37:13;28.17;;;19.35;;
56239;SDS011;42154;51.992;5.896;2024-03-08T11:39:46;19.52;;;13.23;;
56239;SDS011;42154;51.992;5.896;2024-03-08T11:42:16;27.65;;;19.67;;
56239;SDS011;42154;51.992;5.896;2024-03-08T11:44:45;24.52;;;17.73;;
56239;SDS011;42154;51.992;5.896;2024-03-08T11:47:12;26.20;;;17.83;;
56239;SDS011;42154;51.992;5.896;2024-03-08T11:49:40;25.10;;;18.10;;
56239;SDS011;42154;51.992;5.896;2024-03-08T11:52:15;24.95;;;18.58;;
56239;SDS011;42154;51.992;5.896;2024-03-08T11:54:42;27.58;;;17.52;;
56239;SDS011;42154;51.992;5.896;2024-03-08T11:57:17;24.25;;;17.35;;
56239;SDS011;42154;51.992;5.896;2024-03-08T11:59:50;22.80;;;17.17;;
56239;SDS011;42154;51.992;5.896;2024-03-08T12:02:16;22.15;;;16.52;;
56239;SDS011;42154;51.992;5.896;2024-03-08T12:04:44;26.48;;;17.70;;
56239;SDS011;42154;51.992;5.896;2024-03-08T12:07:11;24.10;;;16.67;;
56239;SDS011;42154;51.992;5.896;2024-03-08T12:09:42;22.45;;;15.05;;
56239;SDS011;42154;51.992;5.896;2024-03-08T12:12:11;22.23;;;15.48;;
56239;SDS011;42154;51.992;5.896;2024-03-08T12:14:37;23.88;;;17.05;;
56239;SDS011;42154;51.992;5.896;2024-03-08T12:17:07;23.87;;;16.70;;
56239;SDS011;42154;51.992;5.896;2024-03-08T12:19:35;25.05;;;16.30;;
56239;SDS011;42154;51.992;5.896;2024-03-08T12:22:12;20.90;;;15.93;;
56239;SDS011;42154;51.992;5.896;2024-03-08T12:24:40;20.98;;;15.32;;
56239;SDS011;42154;51.992;5.896;2024-03-08T12:27:19;22.83;;;16.42;;
56239;SDS011;42154;51.992;5.896;2024-03-08T12:29:45;23.13;;;16.30;;
56239;SDS011;42154;51.992;5.896;2024-03-08T12:32:12;24.77;;;17.13;;
56239;SDS011;42154;51.992;5.896;2024-03-08T12:34:37;22.40;;;16.30;;
56239;SDS011;42154;51.992;5.896;2024-03-08T12:37:04;22.42;;;15.82;;
56239;SDS011;42154;51.992;5.896;2024-03-08T12:39:32;21.20;;;15.00;;
56239;SDS011;42154;51.992;5.896;2024-03-08T12:41:58;20.42;;;15.35;;
56239;SDS011;42154;51.992;5.896;2024-03-08T12:44:25;23.02;;;16.65;;
56239;SDS011;42154;51.992;5.896;2024-03-08T12:46:51;23.63;;;17.77;;
56239;SDS011;42154;51.992;5.896;2024-03-08T12:49:18;23.10;;;16.83;;
56239;SDS011;42154;51.992;5.896;2024-03-08T12:51:47;23.38;;;16.70;;
56239;SDS011;42154;51.992;5.896;2024-03-08T12:54:13;20.65;;;15.98;;
56239;SDS011;42154;51.992;5.896;2024-03-08T12:56:39;24.73;;;17.48;;
56239;SDS011;42154;51.992;5.896;2024-03-08T12:59:06;24.17;;;17.38;;
56239;SDS011;42154;51.992;5.896;2024-03-08T13:01:33;21.52;;;16.65;;
56239;SDS011;42154;51.992;5.896;2024-03-08T13:04:02;27.92;;;17.30;;
56239;SDS011;42154;51.992;5.896;2024-03-08T13:06:28;24.27;;;16.80;;
56239;SDS011;42154;51.992;5.896;2024-03-08T13:08:56;25.25;;;17.98;;
56239;SDS011;42154;51.992;5.896;2024-03-08T13:11:23;21.42;;;15.93;;
56239;SDS011;42154;51.992;5.896;2024-03-08T13:13:50;25.35;;;18.15;;
56239;SDS011;42154;51.992;5.896;2024-03-08T13:16:17;23.08;;;17.13;;
56239;SDS011;42154;51.992;5.896;2024-03-08T13:18:44;21.98;;;16.65;;
56239;SDS011;42154;51.992;5.896;2024-03-08T13:21:14;23.95;;;17.52;;
56239;SDS011;42154;51.992;5.896;2024-03-08T13:23:43;22.92;;;16.65;;
56239;SDS011;42154;51.992;5.896;2024-03-08T13:28:41;23.75;;;16.52;;
56239;SDS011;42154;51.992;5.896;2024-03-08T13:31:19;24.23;;;17.67;;
56239;SDS011;42154;51.992;5.896;2024-03-08T13:33:45;23.10;;;16.60;;
56239;SDS011;42154;51.992;5.896;2024-03-08T13:36:12;21.83;;;16.58;;
56239;SDS011;42154;51.992;5.896;2024-03-08T13:41:08;22.65;;;16.58;;
56239;SDS011;42154;51.992;5.896;2024-03-08T13:43:34;23.77;;;16.98;;
56239;SDS011;42154;51.992;5.896;2024-03-08T13:46:02;22.33;;;16.88;;
56239;SDS011;42154;51.992;5.896;2024-03-08T13:48:28;24.52;;;17.13;;
56239;SDS011;42154;51.992;5.896;2024-03-08T13:50:54;26.23;;;18.52;;
56239;SDS011;42154;51.992;5.896;2024-03-08T13:53:22;23.35;;;16.17;;
56239;SDS011;42154;51.992;5.896;2024-03-08T13:55:49;24.00;;;16.95;;
56239;SDS011;42154;51.992;5.896;2024-03-08T13:58:15;20.55;;;14.85;;
56239;SDS011;42154;51.992;5.896;2024-03-08T14:00:41;21.75;;;15.98;;
56239;SDS011;42154;51.992;5.896;2024-03-08T14:03:09;24.90;;;17.67;;
56239;SDS011;42154;51.992;5.896;2024-03-08T14:05:38;21.90;;;16.15;;
56239;SDS011;42154;51.992;5.896;2024-03-08T14:08:08;24.33;;;16.58;;
56239;SDS011;42154;51.992;5.896;2024-03-08T14:10:34;23.45;;;16.50;;
56239;SDS011;42154;51.992;5.896;2024-03-08T14:13:02;22.08;;;16.65;;
56239;SDS011;42154;51.992;5.896;2024-03-08T14:15:30;21.45;;;16.08;;
56239;SDS011;42154;51.992;5.896;2024-03-08T14:17:56;24.88;;;16.90;;
56239;SDS011;42154;51.992;5.896;2024-03-08T14:20:23;25.33;;;16.30;;
56239;SDS011;42154;51.992;5.896;2024-03-08T14:22:51;22.17;;;15.90;;
56239;SDS011;42154;51.992;5.896;2024-03-08T14:25:20;22.17;;;15.52;;
56239;SDS011;42154;51.992;5.896;2024-03-08T14:27:52;22.63;;;15.40;;
56239;SDS011;42154;51.992;5.896;2024-03-08T14:30:19;22.98;;;16.73;;
56239;SDS011;42154;51.992;5.896;2024-03-08T14:33:07;19.55;;;15.20;;
56239;SDS011;42154;51.992;5.896;2024-03-08T14:35:37;18.73;;;14.02;;
56239;SDS011;42154;51.992;5.896;2024-03-08T14:38:04;23.00;;;16.65;;
56239;SDS011;42154;51.992;5.896;2024-03-08T14:40:33;22.63;;;17.52;;
56239;SDS011;42154;51.992;5.896;2024-03-08T14:42:59;23.05;;;16.10;;
56239;SDS011;42154;51.992;5.896;2024-03-08T14:45:26;24.25;;;15.82;;
56239;SDS011;42154;51.992;5.896;2024-03-08T14:47:51;21.80;;;16.17;;
56239;SDS011;42154;51.992;5.896;2024-03-08T14:50:21;22.30;;;15.38;;